sensor_id;sensor_type;location;lat;lon;timestamp;P1;durP1;ratioP1;P2;durP2;ratioP2
21038;SDS011;10678;51.002;4.786;2023-10-19T00:01:14;5.78;;;1.55;;
21038;SDS011;10678;51.002;4.786;2023-10-19T00:03:43;6.20;;;1.38;;
21038;SDS011;10678;51.002;4.786;2023-10-19T00:06:09;6.35;;;1.52;;
21038;SDS011;10678;51.002;4.786;2023-10-19T00:08:36;6.35;;;1.33;;
21038;SDS011;10678;51.002;4.786;2023-10-19T00:11:06;4.05;;;1.30;;
21038;SDS011;10678;51.002;4.786;2023-10-19T00:13:37;8.38;;;1.52;;
21038;SDS011;10678;51.002;4.786;2023-10-19T00:16:04;9.52;;;2.00;;
21038;SDS011;10678;51.002;4.786;2023-10-19T00:18:43;6.38;;;1.30;;
21038;SDS011;10678;51.002;4.786;2023-10-19T00:21:09;6.85;;;1.42;;
21038;SDS011;10678;51.002;4.786;2023-10-19T00:23:50;4.40;;;1.40;;
21038;SDS011;10678;51.002;4.786;2023-10-19T00:26:22;4.07;;;1.10;;
21038;SDS011;10678;51.002;4.786;2023-10-19T00:28:50;3.38;;;1.05;;
21038;SDS011;10678;51.002;4.786;2023-10-19T00:31:23;7.47;;;1.35;;
21038;SDS011;10678;51.002;4.786;2023-10-19T00:33:50;4.88;;;1.10;;
21038;SDS011;10678;51.002;4.786;2023-10-19T00:36:19;6.82;;;1.10;;
21038;SDS011;10678;51.002;4.786;2023-10-19T00:38:47;3.97;;;0.98;;
21038;SDS011;10678;51.002;4.786;2023-10-19T00:41:13;5.05;;;1.40;;
21038;SDS011;10678;51.002;4.786;2023-10-19T00:43:44;5.80;;;1.10;;
21038;SDS011;10678;51.002;4.786;2023-10-19T00:46:14;5.35;;;1.85;;
21038;SDS011;10678;51.002;4.786;2023-10-19T00:51:16;8.30;;;0.98;;
21038;SDS011;10678;51.002;4.786;2023-10-19T00:56:35;10.23;;;1.80;;
21038;SDS011;10678;51.002;4.786;2023-10-19T00:59:02;3.88;;;1.10;;
21038;SDS011;10678;51.002;4.786;2023-10-19T01:01:38;4.57;;;1.30;;
21038;SDS011;10678;51.002;4.786;2023-10-19T01:04:09;4.32;;;0.82;;
21038;SDS011;10678;51.002;4.786;2023-10-19T01:06:45;7.35;;;1.08;;
21038;SDS011;10678;51.002;4.786;2023-10-19T01:09:26;2.75;;;0.85;;
21038;SDS011;10678;51.002;4.786;2023-10-19T01:11:53;3.15;;;0.77;;
21038;SDS011;10678;51.002;4.786;2023-10-19T01:14:19;6.03;;;0.95;;
21038;SDS011;10678;51.002;4.786;2023-10-19T01:16:53;3.60;;;1.00;;
21038;SDS011;10678;51.002;4.786;2023-10-19T01:19:23;4.93;;;1.05;;
21038;SDS011;10678;51.002;4.786;2023-10-19T01:21:48;3.83;;;0.65;;
21038;SDS011;10678;51.002;4.786;2023-10-19T01:24:18;2.22;;;0.57;;
21038;SDS011;10678;51.002;4.786;2023-10-19T01:26:52;3.97;;;0.90;;
21038;SDS011;10678;51.002;4.786;2023-10-19T01:29:18;2.97;;;0.70;;
21038;SDS011;10678;51.002;4.786;2023-10-19T01:31:51;2.03;;;0.60;;
21038;SDS011;10678;51.002;4.786;2023-10-19T01:34:37;4.70;;;0.88;;
21038;SDS011;10678;51.002;4.786;2023-10-19T01:37:03;6.63;;;0.85;;
21038;SDS011;10678;51.002;4.786;2023-10-19T01:39:30;2.97;;;0.70;;
21038;SDS011;10678;51.002;4.786;2023-10-19T01:42:02;9.20;;;0.70;;
21038;SDS011;10678;51.002;4.786;2023-10-19T01:44:32;1.52;;;0.47;;
21038;SDS011;10678;51.002;4.786;2023-10-19T01:47:01;4.30;;;0.75;;
21038;SDS011;10678;51.002;4.786;2023-10-19T01:49:26;3.60;;;0.70;;
21038;SDS011;10678;51.002;4.786;2023-10-19T01:51:53;3.85;;;0.57;;
21038;SDS011;10678;51.002;4.786;2023-10-19T01:54:19;2.72;;;0.55;;
21038;SDS011;10678;51.002;4.786;2023-10-19T01:56:53;3.33;;;0.70;;
21038;SDS011;10678;51.002;4.786;2023-10-19T01:59:22;5.55;;;1.00;;
21038;SDS011;10678;51.002;4.786;2023-10-19T02:01:55;1.27;;;0.40;;
21038;SDS011;10678;51.002;4.786;2023-10-19T02:04:22;1.95;;;0.60;;
21038;SDS011;10678;51.002;4.786;2023-10-19T02:06:48;5.47;;;0.60;;
21038;SDS011;10678;51.002;4.786;2023-10-19T02:09:17;3.60;;;0.70;;
21038;SDS011;10678;51.002;4.786;2023-10-19T02:11:43;6.30;;;0.70;;
21038;SDS011;10678;51.002;4.786;2023-10-19T02:14:12;4.65;;;1.13;;
21038;SDS011;10678;51.002;4.786;2023-10-19T02:16:40;2.58;;;0.65;;
21038;SDS011;10678;51.002;4.786;2023-10-19T02:19:11;2.40;;;0.50;;
21038;SDS011;10678;51.002;4.786;2023-10-19T02:21:38;5.95;;;0.80;;
21038;SDS011;10678;51.002;4.786;2023-10-19T02:24:10;5.45;;;0.77;;
21038;SDS011;10678;51.002;4.786;2023-10-19T02:26:39;5.78;;;0.60;;
21038;SDS011;10678;51.002;4.786;2023-10-19T02:29:09;4.85;;;0.55;;
21038;SDS011;10678;51.002;4.786;2023-10-19T02:31:44;2.38;;;0.55;;
21038;SDS011;10678;51.002;4.786;2023-10-19T02:34:11;5.30;;;0.60;;
21038;SDS011;10678;51.002;4.786;2023-10-19T02:36:40;7.03;;;0.88;;
21038;SDS011;10678;51.002;4.786;2023-10-19T02:39:10;7.13;;;0.95;;
21038;SDS011;10678;51.002;4.786;2023-10-19T02:41:39;7.32;;;0.90;;
21038;SDS011;10678;51.002;4.786;2023-10-19T02:44:16;6.15;;;0.82;;
21038;SDS011;10678;51.002;4.786;2023-10-19T02:46:44;6.03;;;0.80;;
21038;SDS011;10678;51.002;4.786;2023-10-19T02:49:15;3.72;;;0.68;;
21038;SDS011;10678;51.002;4.786;2023-10-19T02:51:45;7.18;;;1.02;;
21038;SDS011;10678;51.002;4.786;2023-10-19T02:54:16;4.43;;;0.70;;
21038;SDS011;10678;51.002;4.786;2023-10-19T02:56:50;4.68;;;0.90;;
21038;SDS011;10678;51.002;4.786;2023-10-19T02:59:18;4.35;;;0.85;;
21038;SDS011;10678;51.002;4.786;2023-10-19T03:01:48;3.75;;;1.23;;
21038;SDS011;10678;51.002;4.786;2023-10-19T03:04:14;4.25;;;0.65;;
21038;SDS011;10678;51.002;4.786;2023-10-19T03:06:40;5.30;;;1.25;;
21038;SDS011;10678;51.002;4.786;2023-10-19T03:09:07;8.15;;;1.05;;
21038;SDS011;10678;51.002;4.786;2023-10-19T03:11:57;5.50;;;1.00;;
21038;SDS011;10678;51.002;4.786;2023-10-19T03:14:28;5.28;;;0.80;;
21038;SDS011;10678;51.002;4.786;2023-10-19T03:16:54;4.28;;;0.90;;
21038;SDS011;10678;51.002;4.786;2023-10-19T03:19:21;6.70;;;1.20;;
21038;SDS011;10678;51.002;4.786;2023-10-19T03:21:47;5.22;;;1.00;;
21038;SDS011;10678;51.002;4.786;2023-10-19T03:24:16;9.23;;;1.10;;
21038;SDS011;10678;51.002;4.786;2023-10-19T03:27:00;5.38;;;0.90;;
21038;SDS011;10678;51.002;4.786;2023-10-19T03:29:37;5.20;;;0.88;;
21038;SDS011;10678;51.002;4.786;2023-10-19T03:32:04;5.15;;;0.70;;
21038;SDS011;10678;51.002;4.786;2023-10-19T03:34:34;5.05;;;1.48;;
21038;SDS011;10678;51.002;4.786;2023-10-19T03:37:00;4.38;;;0.90;;
21038;SDS011;10678;51.002;4.786;2023-10-19T03:39:31;3.00;;;0.52;;
21038;SDS011;10678;51.002;4.786;2023-10-19T03:42:03;5.95;;;1.65;;
21038;SDS011;10678;51.002;4.786;2023-10-19T03:44:31;6.20;;;1.15;;
21038;SDS011;10678;51.002;4.786;2023-10-19T03:47:17;8.30;;;1.00;;
21038;SDS011;10678;51.002;4.786;2023-10-19T03:49:50;6.05;;;1.10;;
21038;SDS011;10678;51.002;4.786;2023-10-19T03:52:16;4.07;;;1.02;;
21038;SDS011;10678;51.002;4.786;2023-10-19T03:54:41;7.30;;;1.40;;
21038;SDS011;10678;51.002;4.786;2023-10-19T03:57:08;8.73;;;0.80;;
21038;SDS011;10678;51.002;4.786;2023-10-19T03:59:41;5.80;;;1.23;;
21038;SDS011;10678;51.002;4.786;2023-10-19T04:02:07;10.90;;;0.93;;
21038;SDS011;10678;51.002;4.786;2023-10-19T04:04:39;3.97;;;0.82;;
21038;SDS011;10678;51.002;4.786;2023-10-19T04:07:08;9.57;;;1.25;;
21038;SDS011;10678;51.002;4.786;2023-10-19T04:09:50;7.53;;;1.15;;
21038;SDS011;10678;51.002;4.786;2023-10-19T04:12:26;8.68;;;1.30;;
21038;SDS011;10678;51.002;4.786;2023-10-19T04:15:00;8.75;;;0.73;;
21038;SDS011;10678;51.002;4.786;2023-10-19T04:17:42;9.95;;;1.98;;
21038;SDS011;10678;51.002;4.786;2023-10-19T04:20:10;9.27;;;1.00;;
21038;SDS011;10678;51.002;4.786;2023-10-19T04:22:42;11.43;;;1.10;;
21038;SDS011;10678;51.002;4.786;2023-10-19T04:25:08;7.50;;;1.00;;
21038;SDS011;10678;51.002;4.786;2023-10-19T04:27:37;10.50;;;1.10;;
21038;SDS011;10678;51.002;4.786;2023-10-19T04:30:03;8.98;;;1.50;;
21038;SDS011;10678;51.002;4.786;2023-10-19T04:32:30;9.38;;;1.15;;
21038;SDS011;10678;51.002;4.786;2023-10-19T04:34:57;7.93;;;1.13;;
21038;SDS011;10678;51.002;4.786;2023-10-19T04:37:23;8.30;;;1.40;;
21038;SDS011;10678;51.002;4.786;2023-10-19T04:39:49;4.43;;;0.80;;
21038;SDS011;10678;51.002;4.786;2023-10-19T04:42:15;8.02;;;1.58;;
21038;SDS011;10678;51.002;4.786;2023-10-19T04:44:41;4.05;;;1.10;;
21038;SDS011;10678;51.002;4.786;2023-10-19T04:47:06;11.80;;;1.38;;
21038;SDS011;10678;51.002;4.786;2023-10-19T04:49:32;6.32;;;1.20;;
21038;SDS011;10678;51.002;4.786;2023-10-19T04:51:57;12.50;;;1.55;;
21038;SDS011;10678;51.002;4.786;2023-10-19T04:54:23;5.07;;;0.90;;
21038;SDS011;10678;51.002;4.786;2023-10-19T04:56:49;4.47;;;0.75;;
21038;SDS011;10678;51.002;4.786;2023-10-19T04:59:17;9.18;;;1.38;;
21038;SDS011;10678;51.002;4.786;2023-10-19T05:01:43;5.05;;;1.13;;
21038;SDS011;10678;51.002;4.786;2023-10-19T05:04:08;10.07;;;1.60;;
21038;SDS011;10678;51.002;4.786;2023-10-19T05:06:34;6.10;;;1.17;;
21038;SDS011;10678;51.002;4.786;2023-10-19T05:09:00;6.80;;;1.52;;
21038;SDS011;10678;51.002;4.786;2023-10-19T05:11:28;11.32;;;1.50;;
21038;SDS011;10678;51.002;4.786;2023-10-19T05:13:53;8.68;;;1.10;;
21038;SDS011;10678;51.002;4.786;2023-10-19T05:16:19;5.70;;;1.33;;
21038;SDS011;10678;51.002;4.786;2023-10-19T05:18:45;6.88;;;1.00;;
21038;SDS011;10678;51.002;4.786;2023-10-19T05:21:10;4.13;;;1.00;;
21038;SDS011;10678;51.002;4.786;2023-10-19T05:23:37;4.30;;;0.98;;
21038;SDS011;10678;51.002;4.786;2023-10-19T05:26:03;6.40;;;1.13;;
21038;SDS011;10678;51.002;4.786;2023-10-19T05:28:30;8.73;;;1.25;;
21038;SDS011;10678;51.002;4.786;2023-10-19T05:30:55;6.53;;;1.63;;
21038;SDS011;10678;51.002;4.786;2023-10-19T05:33:22;7.63;;;1.10;;
21038;SDS011;10678;51.002;4.786;2023-10-19T05:35:48;6.80;;;1.30;;
21038;SDS011;10678;51.002;4.786;2023-10-19T05:38:15;4.57;;;1.05;;
21038;SDS011;10678;51.002;4.786;2023-10-19T05:40:47;5.50;;;0.80;;
21038;SDS011;10678;51.002;4.786;2023-10-19T05:43:15;2.90;;;0.80;;
21038;SDS011;10678;51.002;4.786;2023-10-19T05:45:41;6.43;;;0.98;;
21038;SDS011;10678;51.002;4.786;2023-10-19T05:48:07;5.70;;;1.00;;
21038;SDS011;10678;51.002;4.786;2023-10-19T05:50:33;6.85;;;1.05;;
21038;SDS011;10678;51.002;4.786;2023-10-19T05:52:59;5.45;;;0.98;;
21038;SDS011;10678;51.002;4.786;2023-10-19T05:55:25;11.02;;;1.15;;
21038;SDS011;10678;51.002;4.786;2023-10-19T05:57:51;5.30;;;0.80;;
21038;SDS011;10678;51.002;4.786;2023-10-19T06:00:17;11.70;;;1.85;;
21038;SDS011;10678;51.002;4.786;2023-10-19T06:02:46;7.97;;;1.67;;
21038;SDS011;10678;51.002;4.786;2023-10-19T06:05:15;8.27;;;1.27;;
21038;SDS011;10678;51.002;4.786;2023-10-19T06:07:45;13.98;;;1.67;;
21038;SDS011;10678;51.002;4.786;2023-10-19T06:10:12;8.68;;;1.20;;
21038;SDS011;10678;51.002;4.786;2023-10-19T06:12:42;7.65;;;1.40;;
21038;SDS011;10678;51.002;4.786;2023-10-19T06:15:13;7.47;;;1.35;;
21038;SDS011;10678;51.002;4.786;2023-10-19T06:17:40;6.53;;;1.15;;
21038;SDS011;10678;51.002;4.786;2023-10-19T06:20:08;6.07;;;1.70;;
21038;SDS011;10678;51.002;4.786;2023-10-19T06:22:47;8.50;;;1.45;;
21038;SDS011;10678;51.002;4.786;2023-10-19T06:25:19;5.20;;;0.95;;
21038;SDS011;10678;51.002;4.786;2023-10-19T06:27:49;11.95;;;2.35;;
21038;SDS011;10678;51.002;4.786;2023-10-19T06:30:15;12.00;;;1.80;;
21038;SDS011;10678;51.002;4.786;2023-10-19T06:32:48;4.75;;;1.13;;
21038;SDS011;10678;51.002;4.786;2023-10-19T06:35:16;7.90;;;1.40;;
21038;SDS011;10678;51.002;4.786;2023-10-19T06:37:42;9.18;;;1.40;;
21038;SDS011;10678;51.002;4.786;2023-10-19T06:40:09;11.73;;;1.55;;
21038;SDS011;10678;51.002;4.786;2023-10-19T06:42:36;8.75;;;1.40;;
21038;SDS011;10678;51.002;4.786;2023-10-19T06:45:03;9.07;;;1.60;;
21038;SDS011;10678;51.002;4.786;2023-10-19T06:47:29;9.18;;;1.52;;
21038;SDS011;10678;51.002;4.786;2023-10-19T06:49:55;5.05;;;1.13;;
21038;SDS011;10678;51.002;4.786;2023-10-19T06:52:21;5.93;;;1.00;;
21038;SDS011;10678;51.002;4.786;2023-10-19T06:54:47;8.32;;;1.10;;
21038;SDS011;10678;51.002;4.786;2023-10-19T06:57:13;5.45;;;1.20;;
21038;SDS011;10678;51.002;4.786;2023-10-19T06:59:38;4.90;;;1.08;;
21038;SDS011;10678;51.002;4.786;2023-10-19T07:02:04;5.43;;;0.98;;
21038;SDS011;10678;51.002;4.786;2023-10-19T07:04:32;6.03;;;0.98;;
21038;SDS011;10678;51.002;4.786;2023-10-19T07:06:58;8.38;;;1.30;;
21038;SDS011;10678;51.002;4.786;2023-10-19T07:09:25;12.48;;;1.15;;
21038;SDS011;10678;51.002;4.786;2023-10-19T07:11:51;4.45;;;1.15;;
21038;SDS011;10678;51.002;4.786;2023-10-19T07:14:19;7.07;;;1.42;;
21038;SDS011;10678;51.002;4.786;2023-10-19T07:16:47;9.85;;;1.67;;
21038;SDS011;10678;51.002;4.786;2023-10-19T07:19:14;4.07;;;1.10;;
21038;SDS011;10678;51.002;4.786;2023-10-19T07:21:40;4.82;;;1.10;;
21038;SDS011;10678;51.002;4.786;2023-10-19T07:24:08;7.38;;;1.17;;
21038;SDS011;10678;51.002;4.786;2023-10-19T07:26:36;8.57;;;1.63;;
21038;SDS011;10678;51.002;4.786;2023-10-19T07:29:16;7.13;;;1.30;;
21038;SDS011;10678;51.002;4.786;2023-10-19T07:31:42;3.40;;;0.93;;
21038;SDS011;10678;51.002;4.786;2023-10-19T07:34:07;7.97;;;1.10;;
21038;SDS011;10678;51.002;4.786;2023-10-19T07:36:37;6.50;;;1.10;;
21038;SDS011;10678;51.002;4.786;2023-10-19T07:39:03;8.57;;;1.10;;
21038;SDS011;10678;51.002;4.786;2023-10-19T07:41:29;6.57;;;0.88;;
21038;SDS011;10678;51.002;4.786;2023-10-19T07:44:01;4.28;;;0.98;;
21038;SDS011;10678;51.002;4.786;2023-10-19T07:46:27;8.30;;;1.23;;
21038;SDS011;10678;51.002;4.786;2023-10-19T07:48:54;3.28;;;0.98;;
21038;SDS011;10678;51.002;4.786;2023-10-19T07:51:19;6.95;;;1.00;;
21038;SDS011;10678;51.002;4.786;2023-10-19T07:53:45;6.78;;;1.30;;
21038;SDS011;10678;51.002;4.786;2023-10-19T07:56:11;10.68;;;1.40;;
21038;SDS011;10678;51.002;4.786;2023-10-19T07:58:36;7.00;;;1.40;;
21038;SDS011;10678;51.002;4.786;2023-10-19T08:01:02;3.30;;;0.80;;
21038;SDS011;10678;51.002;4.786;2023-10-19T08:03:28;8.00;;;1.00;;
21038;SDS011;10678;51.002;4.786;2023-10-19T08:05:53;5.95;;;1.05;;
21038;SDS011;10678;51.002;4.786;2023-10-19T08:08:19;6.85;;;1.10;;
21038;SDS011;10678;51.002;4.786;2023-10-19T08:10:45;7.68;;;1.40;;
21038;SDS011;10678;51.002;4.786;2023-10-19T08:13:12;5.88;;;1.10;;
21038;SDS011;10678;51.002;4.786;2023-10-19T08:15:38;8.18;;;1.40;;
21038;SDS011;10678;51.002;4.786;2023-10-19T08:18:03;8.57;;;1.10;;
21038;SDS011;10678;51.002;4.786;2023-10-19T08:20:30;7.80;;;1.40;;
21038;SDS011;10678;51.002;4.786;2023-10-19T08:22:57;11.43;;;1.60;;
21038;SDS011;10678;51.002;4.786;2023-10-19T08:25:24;9.60;;;1.27;;
21038;SDS011;10678;51.002;4.786;2023-10-19T08:27:52;12.15;;;1.77;;
21038;SDS011;10678;51.002;4.786;2023-10-19T08:30:22;12.88;;;1.80;;
21038;SDS011;10678;51.002;4.786;2023-10-19T08:32:48;7.75;;;2.17;;
21038;SDS011;10678;51.002;4.786;2023-10-19T08:35:16;7.05;;;1.13;;
21038;SDS011;10678;51.002;4.786;2023-10-19T08:37:45;10.70;;;1.33;;
21038;SDS011;10678;51.002;4.786;2023-10-19T08:40:11;11.40;;;1.60;;
21038;SDS011;10678;51.002;4.786;2023-10-19T08:42:44;9.18;;;1.42;;
21038;SDS011;10678;51.002;4.786;2023-10-19T08:45:11;9.65;;;1.20;;
21038;SDS011;10678;51.002;4.786;2023-10-19T08:50:26;14.70;;;1.45;;
21038;SDS011;10678;51.002;4.786;2023-10-19T08:52:54;7.63;;;1.48;;
21038;SDS011;10678;51.002;4.786;2023-10-19T08:55:21;9.48;;;1.30;;
21038;SDS011;10678;51.002;4.786;2023-10-19T08:57:50;10.27;;;1.15;;
21038;SDS011;10678;51.002;4.786;2023-10-19T09:00:17;6.95;;;1.27;;
21038;SDS011;10678;51.002;4.786;2023-10-19T09:02:46;7.93;;;1.58;;
21038;SDS011;10678;51.002;4.786;2023-10-19T09:05:12;8.25;;;1.30;;
21038;SDS011;10678;51.002;4.786;2023-10-19T09:07:50;7.95;;;1.50;;
21038;SDS011;10678;51.002;4.786;2023-10-19T09:10:23;7.88;;;1.15;;
21038;SDS011;10678;51.002;4.786;2023-10-19T09:13:00;8.13;;;1.40;;
21038;SDS011;10678;51.002;4.786;2023-10-19T09:15:27;6.95;;;1.60;;
21038;SDS011;10678;51.002;4.786;2023-10-19T09:18:20;9.45;;;2.03;;
21038;SDS011;10678;51.002;4.786;2023-10-19T09:20:48;9.27;;;1.55;;
21038;SDS011;10678;51.002;4.786;2023-10-19T09:23:19;10.90;;;1.17;;
21038;SDS011;10678;51.002;4.786;2023-10-19T09:25:46;11.68;;;1.77;;
21038;SDS011;10678;51.002;4.786;2023-10-19T09:28:17;5.50;;;1.45;;
21038;SDS011;10678;51.002;4.786;2023-10-19T09:30:43;8.00;;;1.55;;
21038;SDS011;10678;51.002;4.786;2023-10-19T09:33:09;11.10;;;1.75;;
21038;SDS011;10678;51.002;4.786;2023-10-19T09:35:36;10.13;;;1.35;;
21038;SDS011;10678;51.002;4.786;2023-10-19T09:38:04;7.13;;;1.75;;
21038;SDS011;10678;51.002;4.786;2023-10-19T09:40:31;9.98;;;1.50;;
21038;SDS011;10678;51.002;4.786;2023-10-19T09:42:58;5.85;;;1.10;;
21038;SDS011;10678;51.002;4.786;2023-10-19T09:45:27;9.88;;;2.08;;
21038;SDS011;10678;51.002;4.786;2023-10-19T09:47:55;6.55;;;1.23;;
21038;SDS011;10678;51.002;4.786;2023-10-19T09:50:21;7.15;;;1.42;;
21038;SDS011;10678;51.002;4.786;2023-10-19T09:52:47;12.38;;;1.90;;
21038;SDS011;10678;51.002;4.786;2023-10-19T10:00:45;12.15;;;1.80;;
21038;SDS011;10678;51.002;4.786;2023-10-19T10:06:08;12.07;;;1.63;;
21038;SDS011;10678;51.002;4.786;2023-10-19T10:08:39;8.73;;;1.67;;
21038;SDS011;10678;51.002;4.786;2023-10-19T10:11:13;10.18;;;1.35;;
21038;SDS011;10678;51.002;4.786;2023-10-19T10:13:47;7.18;;;1.23;;
21038;SDS011;10678;51.002;4.786;2023-10-19T10:16:21;4.80;;;1.27;;
21038;SDS011;10678;51.002;4.786;2023-10-19T10:18:49;8.40;;;1.30;;
21038;SDS011;10678;51.002;4.786;2023-10-19T10:23:55;13.15;;;1.63;;
21038;SDS011;10678;51.002;4.786;2023-10-19T10:26:26;7.03;;;1.33;;
21038;SDS011;10678;51.002;4.786;2023-10-19T10:29:13;7.70;;;1.67;;
21038;SDS011;10678;51.002;4.786;2023-10-19T10:31:47;10.70;;;1.73;;
21038;SDS011;10678;51.002;4.786;2023-10-19T10:36:59;11.38;;;2.03;;
21038;SDS011;10678;51.002;4.786;2023-10-19T10:39:27;6.10;;;1.70;;
21038;SDS011;10678;51.002;4.786;2023-10-19T10:41:55;16.77;;;1.75;;
21038;SDS011;10678;51.002;4.786;2023-10-19T10:49:53;10.82;;;2.05;;
21038;SDS011;10678;51.002;4.786;2023-10-19T10:55:07;9.77;;;1.70;;
21038;SDS011;10678;51.002;4.786;2023-10-19T10:57:36;13.05;;;1.98;;
21038;SDS011;10678;51.002;4.786;2023-10-19T11:00:08;9.80;;;1.42;;
21038;SDS011;10678;51.002;4.786;2023-10-19T11:02:46;11.85;;;2.25;;
21038;SDS011;10678;51.002;4.786;2023-10-19T11:05:23;11.45;;;1.75;;
21038;SDS011;10678;51.002;4.786;2023-10-19T11:10:47;11.45;;;2.25;;
21038;SDS011;10678;51.002;4.786;2023-10-19T11:13:14;9.73;;;2.50;;
21038;SDS011;10678;51.002;4.786;2023-10-19T11:15:51;10.57;;;2.50;;
21038;SDS011;10678;51.002;4.786;2023-10-19T11:18:34;9.00;;;1.98;;
21038;SDS011;10678;51.002;4.786;2023-10-19T11:21:14;7.75;;;1.92;;
21038;SDS011;10678;51.002;4.786;2023-10-19T11:23:44;7.32;;;1.70;;
21038;SDS011;10678;51.002;4.786;2023-10-19T11:26:10;8.93;;;1.77;;
21038;SDS011;10678;51.002;4.786;2023-10-19T11:28:38;7.13;;;1.40;;
21038;SDS011;10678;51.002;4.786;2023-10-19T11:31:11;6.00;;;1.38;;
21038;SDS011;10678;51.002;4.786;2023-10-19T11:33:47;7.38;;;1.50;;
21038;SDS011;10678;51.002;4.786;2023-10-19T11:36:14;9.40;;;1.90;;
21038;SDS011;10678;51.002;4.786;2023-10-19T11:38:44;10.80;;;1.63;;
21038;SDS011;10678;51.002;4.786;2023-10-19T11:41:11;7.40;;;1.48;;
21038;SDS011;10678;51.002;4.786;2023-10-19T11:43:39;8.10;;;1.60;;
21038;SDS011;10678;51.002;4.786;2023-10-19T11:46:07;11.27;;;2.45;;
21038;SDS011;10678;51.002;4.786;2023-10-19T11:48:34;10.15;;;1.98;;
21038;SDS011;10678;51.002;4.786;2023-10-19T11:51:03;9.20;;;1.52;;
21038;SDS011;10678;51.002;4.786;2023-10-19T11:53:30;10.68;;;1.85;;
21038;SDS011;10678;51.002;4.786;2023-10-19T11:56:02;8.27;;;1.90;;
21038;SDS011;10678;51.002;4.786;2023-10-19T11:58:32;10.00;;;1.35;;
21038;SDS011;10678;51.002;4.786;2023-10-19T12:00:59;8.80;;;1.95;;
21038;SDS011;10678;51.002;4.786;2023-10-19T12:03:26;8.57;;;1.98;;
21038;SDS011;10678;51.002;4.786;2023-10-19T12:05:52;9.38;;;2.00;;
21038;SDS011;10678;51.002;4.786;2023-10-19T12:08:18;11.40;;;2.00;;
21038;SDS011;10678;51.002;4.786;2023-10-19T12:10:44;9.80;;;1.95;;
21038;SDS011;10678;51.002;4.786;2023-10-19T12:13:10;15.25;;;2.38;;
21038;SDS011;10678;51.002;4.786;2023-10-19T12:15:35;10.65;;;2.20;;
21038;SDS011;10678;51.002;4.786;2023-10-19T12:18:01;9.23;;;1.98;;
21038;SDS011;10678;51.002;4.786;2023-10-19T12:20:28;9.63;;;2.92;;
21038;SDS011;10678;51.002;4.786;2023-10-19T12:22:57;15.80;;;1.92;;
21038;SDS011;10678;51.002;4.786;2023-10-19T12:25:24;9.43;;;1.70;;
21038;SDS011;10678;51.002;4.786;2023-10-19T12:27:57;8.52;;;1.95;;
21038;SDS011;10678;51.002;4.786;2023-10-19T12:30:23;9.55;;;2.08;;
21038;SDS011;10678;51.002;4.786;2023-10-19T12:32:54;6.28;;;1.63;;
21038;SDS011;10678;51.002;4.786;2023-10-19T12:35:20;11.80;;;2.13;;
21038;SDS011;10678;51.002;4.786;2023-10-19T12:37:49;9.80;;;1.95;;
21038;SDS011;10678;51.002;4.786;2023-10-19T12:40:20;6.25;;;1.13;;
21038;SDS011;10678;51.002;4.786;2023-10-19T12:42:53;11.23;;;1.92;;
21038;SDS011;10678;51.002;4.786;2023-10-19T12:45:23;8.95;;;1.60;;
21038;SDS011;10678;51.002;4.786;2023-10-19T12:47:50;4.43;;;1.13;;
21038;SDS011;10678;51.002;4.786;2023-10-19T12:50:19;7.18;;;1.50;;
21038;SDS011;10678;51.002;4.786;2023-10-19T12:52:50;3.75;;;1.38;;
21038;SDS011;10678;51.002;4.786;2023-10-19T12:55:16;7.53;;;1.48;;
21038;SDS011;10678;51.002;4.786;2023-10-19T12:57:43;7.72;;;1.45;;
21038;SDS011;10678;51.002;4.786;2023-10-19T13:00:09;7.82;;;1.42;;
21038;SDS011;10678;51.002;4.786;2023-10-19T13:03:05;8.15;;;1.70;;
21038;SDS011;10678;51.002;4.786;2023-10-19T13:05:32;4.72;;;1.30;;
21038;SDS011;10678;51.002;4.786;2023-10-19T13:08:02;4.25;;;1.15;;
21038;SDS011;10678;51.002;4.786;2023-10-19T13:10:32;6.38;;;1.73;;
21038;SDS011;10678;51.002;4.786;2023-10-19T13:13:03;7.65;;;1.20;;
21038;SDS011;10678;51.002;4.786;2023-10-19T13:15:33;5.32;;;1.10;;
21038;SDS011;10678;51.002;4.786;2023-10-19T13:18:00;3.85;;;1.23;;
21038;SDS011;10678;51.002;4.786;2023-10-19T13:20:28;5.93;;;1.02;;
21038;SDS011;10678;51.002;4.786;2023-10-19T13:23:02;6.53;;;1.20;;
21038;SDS011;10678;51.002;4.786;2023-10-19T13:25:30;4.75;;;1.40;;
21038;SDS011;10678;51.002;4.786;2023-10-19T13:28:12;4.07;;;0.98;;
21038;SDS011;10678;51.002;4.786;2023-10-19T13:33:05;7.10;;;0.90;;
21038;SDS011;10678;51.002;4.786;2023-10-19T13:35:34;4.72;;;1.42;;
21038;SDS011;10678;51.002;4.786;2023-10-19T13:38:05;8.77;;;0.95;;
21038;SDS011;10678;51.002;4.786;2023-10-19T13:40:36;3.47;;;0.80;;
21038;SDS011;10678;51.002;4.786;2023-10-19T13:43:03;4.07;;;1.02;;
21038;SDS011;10678;51.002;4.786;2023-10-19T13:45:31;7.18;;;1.23;;
21038;SDS011;10678;51.002;4.786;2023-10-19T13:47:58;3.80;;;0.80;;
21038;SDS011;10678;51.002;4.786;2023-10-19T13:50:28;3.45;;;1.00;;
21038;SDS011;10678;51.002;4.786;2023-10-19T13:52:55;3.97;;;0.88;;
21038;SDS011;10678;51.002;4.786;2023-10-19T13:55:25;4.03;;;0.80;;
21038;SDS011;10678;51.002;4.786;2023-10-19T13:57:51;8.10;;;1.23;;
21038;SDS011;10678;51.002;4.786;2023-10-19T14:00:18;3.83;;;1.00;;
21038;SDS011;10678;51.002;4.786;2023-10-19T14:02:49;6.32;;;0.80;;
21038;SDS011;10678;51.002;4.786;2023-10-19T14:05:16;1.50;;;0.50;;
21038;SDS011;10678;51.002;4.786;2023-10-19T14:07:41;2.92;;;0.60;;
21038;SDS011;10678;51.002;4.786;2023-10-19T14:10:08;3.55;;;0.50;;
21038;SDS011;10678;51.002;4.786;2023-10-19T14:12:38;2.90;;;0.77;;
21038;SDS011;10678;51.002;4.786;2023-10-19T14:15:07;3.67;;;0.98;;
21038;SDS011;10678;51.002;4.786;2023-10-19T14:17:36;4.47;;;0.70;;
21038;SDS011;10678;51.002;4.786;2023-10-19T14:20:02;4.18;;;0.80;;
21038;SDS011;10678;51.002;4.786;2023-10-19T14:22:30;4.15;;;1.00;;
21038;SDS011;10678;51.002;4.786;2023-10-19T14:24:59;3.38;;;0.90;;
21038;SDS011;10678;51.002;4.786;2023-10-19T14:27:25;2.33;;;0.60;;
21038;SDS011;10678;51.002;4.786;2023-10-19T14:29:51;4.03;;;0.77;;
21038;SDS011;10678;51.002;4.786;2023-10-19T14:32:17;6.03;;;0.80;;
21038;SDS011;10678;51.002;4.786;2023-10-19T14:34:43;5.53;;;1.00;;
21038;SDS011;10678;51.002;4.786;2023-10-19T14:37:09;4.47;;;0.85;;
21038;SDS011;10678;51.002;4.786;2023-10-19T14:39:35;2.22;;;0.75;;
21038;SDS011;10678;51.002;4.786;2023-10-19T14:42:00;2.75;;;0.63;;
21038;SDS011;10678;51.002;4.786;2023-10-19T14:44:26;4.72;;;1.00;;
21038;SDS011;10678;51.002;4.786;2023-10-19T14:46:52;5.90;;;0.98;;
21038;SDS011;10678;51.002;4.786;2023-10-19T14:49:18;3.25;;;0.75;;
21038;SDS011;10678;51.002;4.786;2023-10-19T14:51:44;1.23;;;0.57;;
21038;SDS011;10678;51.002;4.786;2023-10-19T14:54:09;4.60;;;0.80;;
21038;SDS011;10678;51.002;4.786;2023-10-19T14:56:36;4.93;;;0.73;;
21038;SDS011;10678;51.002;4.786;2023-10-19T14:59:02;3.30;;;1.08;;
21038;SDS011;10678;51.002;4.786;2023-10-19T15:01:30;2.42;;;0.68;;
21038;SDS011;10678;51.002;4.786;2023-10-19T15:03:56;1.83;;;0.60;;
21038;SDS011;10678;51.002;4.786;2023-10-19T15:06:21;4.68;;;0.77;;
21038;SDS011;10678;51.002;4.786;2023-10-19T15:08:47;5.18;;;0.73;;
21038;SDS011;10678;51.002;4.786;2023-10-19T15:11:16;5.40;;;0.77;;
21038;SDS011;10678;51.002;4.786;2023-10-19T15:13:43;3.80;;;0.77;;
21038;SDS011;10678;51.002;4.786;2023-10-19T15:16:09;2.97;;;0.70;;
21038;SDS011;10678;51.002;4.786;2023-10-19T15:18:34;3.63;;;0.52;;
21038;SDS011;10678;51.002;4.786;2023-10-19T15:21:07;7.57;;;0.80;;
21038;SDS011;10678;51.002;4.786;2023-10-19T15:23:34;3.42;;;0.75;;
21038;SDS011;10678;51.002;4.786;2023-10-19T15:26:00;6.03;;;0.90;;
21038;SDS011;10678;51.002;4.786;2023-10-19T15:28:26;8.20;;;0.80;;
21038;SDS011;10678;51.002;4.786;2023-10-19T15:30:57;3.50;;;0.70;;